sensor_id;sensor_type;location;lat;lon;timestamp;pressure;altitude;pressure_sealevel;temperature;humidity
25947;BME280;13745;51.470;9.894;2023-03-23T00:02:16;98280.81;;;17.74;51.59
25947;BME280;13745;51.470;9.894;2023-03-23T00:05:01;98290.25;;;17.76;51.26
25947;BME280;13745;51.470;9.894;2023-03-23T00:07:47;98283.22;;;17.77;51.24
25947;BME280;13745;51.470;9.894;2023-03-23T00:10:35;98273.59;;;17.77;51.46
25947;BME280;13745;51.470;9.894;2023-03-23T00:13:20;98270.88;;;17.79;51.54
25947;BME280;13745;51.470;9.894;2023-03-23T00:16:06;98267.34;;;17.80;51.34
25947;BME280;13745;51.470;9.894;2023-03-23T00:19:04;98272.50;;;17.81;51.50
25947;BME280;13745;51.470;9.894;2023-03-23T00:21:49;98261.91;;;17.83;51.46
25947;BME280;13745;51.470;9.894;2023-03-23T00:24:37;98250.38;;;17.85;51.45
25947;BME280;13745;51.470;9.894;2023-03-23T00:27:23;98258.25;;;17.85;51.43
25947;BME280;13745;51.470;9.894;2023-03-23T00:30:09;98250.38;;;17.85;51.17
25947;BME280;13745;51.470;9.894;2023-03-23T00:32:55;98264.25;;;17.87;51.13
25947;BME280;13745;51.470;9.894;2023-03-23T00:35:43;98259.84;;;17.88;51.08
25947;BME280;13745;51.470;9.894;2023-03-23T00:38:28;98267.53;;;17.91;51.08
25947;BME280;13745;51.470;9.894;2023-03-23T00:41:13;98264.06;;;17.90;50.96
25947;BME280;13745;51.470;9.894;2023-03-23T00:43:59;98278.00;;;17.91;51.02
25947;BME280;13745;51.470;9.894;2023-03-23T00:46:46;98278.84;;;17.91;50.93
25947;BME280;13745;51.470;9.894;2023-03-23T00:49:32;98282.31;;;17.92;51.09
25947;BME280;13745;51.470;9.894;2023-03-23T00:52:19;98287.56;;;17.92;51.34
25947;BME280;13745;51.470;9.894;2023-03-23T00:55:05;98305.91;;;17.92;51.30
25947;BME280;13745;51.470;9.894;2023-03-23T00:57:51;98305.06;;;17.91;51.77
25947;BME280;13745;51.470;9.894;2023-03-23T01:00:38;98306.00;;;17.90;52.54
25947;BME280;13745;51.470;9.894;2023-03-23T01:03:23;98292.41;;;17.84;52.85
25947;BME280;13745;51.470;9.894;2023-03-23T01:06:10;98298.03;;;17.78;53.23
25947;BME280;13745;51.470;9.894;2023-03-23T01:09:01;98295.19;;;17.66;53.59
25947;BME280;13745;51.470;9.894;2023-03-23T01:11:48;98299.09;;;17.59;54.11
25947;BME280;13745;51.470;9.894;2023-03-23T01:14:34;98305.72;;;17.51;54.33
25947;BME280;13745;51.470;9.894;2023-03-23T01:17:19;98282.94;;;17.37;54.97
25947;BME280;13745;51.470;9.894;2023-03-23T01:20:06;98275.72;;;17.26;55.13
25947;BME280;13745;51.470;9.894;2023-03-23T01:22:51;98267.56;;;17.17;55.48
25947;BME280;13745;51.470;9.894;2023-03-23T01:25:38;98268.94;;;17.08;55.65
25947;BME280;13745;51.470;9.894;2023-03-23T01:28:23;98257.22;;;16.99;55.92
25947;BME280;13745;51.470;9.894;2023-03-23T01:31:09;98259.25;;;16.94;56.14
25947;BME280;13745;51.470;9.894;2023-03-23T01:33:55;98257.84;;;16.89;56.31
25947;BME280;13745;51.470;9.894;2023-03-23T01:36:41;98238.94;;;16.83;56.28
25947;BME280;13745;51.470;9.894;2023-03-23T01:39:26;98247.88;;;16.79;56.21
25947;BME280;13745;51.470;9.894;2023-03-23T01:42:12;98249.84;;;16.76;56.48
25947;BME280;13745;51.470;9.894;2023-03-23T01:45:26;98246.38;;;16.75;56.27
25947;BME280;13745;51.470;9.894;2023-03-23T01:48:15;98264.88;;;16.72;56.39
25947;BME280;13745;51.470;9.894;2023-03-23T01:51:05;98248.50;;;16.69;56.23
25947;BME280;13745;51.470;9.894;2023-03-23T01:53:54;98248.56;;;16.67;56.12
25947;BME280;13745;51.470;9.894;2023-03-23T01:56:45;98239.78;;;16.68;56.04
25947;BME280;13745;51.470;9.894;2023-03-23T01:59:34;98233.53;;;16.71;56.07
25947;BME280;13745;51.470;9.894;2023-03-23T02:02:35;98232.63;;;16.72;55.83
25947;BME280;13745;51.470;9.894;2023-03-23T02:05:27;98223.84;;;16.73;56.00
25947;BME280;13745;51.470;9.894;2023-03-23T02:08:16;98232.44;;;16.75;55.84
25947;BME280;13745;51.470;9.894;2023-03-23T02:11:11;98233.28;;;16.75;56.09
25947;BME280;13745;51.470;9.894;2023-03-23T02:13:57;98235.72;;;16.78;55.81
25947;BME280;13745;51.470;9.894;2023-03-23T02:16:49;98261.91;;;16.78;55.69
25947;BME280;13745;51.470;9.894;2023-03-23T02:19:53;98233.03;;;16.80;55.55
25947;BME280;13745;51.470;9.894;2023-03-23T02:23:02;98241.66;;;16.82;55.62
25947;BME280;13745;51.470;9.894;2023-03-23T02:26:01;98212.84;;;16.82;55.43
25947;BME280;13745;51.470;9.894;2023-03-23T02:29:22;98208.38;;;16.84;55.51
25947;BME280;13745;51.470;9.894;2023-03-23T02:32:23;98208.47;;;16.82;55.62
25947;BME280;13745;51.470;9.894;2023-03-23T02:35:18;98216.22;;;16.84;55.46
25947;BME280;13745;51.470;9.894;2023-03-23T02:38:09;98219.78;;;16.83;55.55
25947;BME280;13745;51.470;9.894;2023-03-23T02:40:59;98216.13;;;16.85;55.62
25947;BME280;13745;51.470;9.894;2023-03-23T02:43:46;98219.59;;;16.86;55.61
25947;BME280;13745;51.470;9.894;2023-03-23T02:46:33;98210.88;;;16.85;55.87
25947;BME280;13745;51.470;9.894;2023-03-23T02:49:20;98236.22;;;16.85;56.05
25947;BME280;13745;51.470;9.894;2023-03-23T02:52:11;98210.25;;;16.82;55.98
25947;BME280;13745;51.470;9.894;2023-03-23T02:55:02;98225.09;;;16.81;56.10
25947;BME280;13745;51.470;9.894;2023-03-23T02:57:48;98235.56;;;16.81;56.50
25947;BME280;13745;51.470;9.894;2023-03-23T03:00:35;98218.25;;;16.79;57.31
25947;BME280;13745;51.470;9.894;2023-03-23T03:03:22;98240.22;;;16.76;56.88
25947;BME280;13745;51.470;9.894;2023-03-23T03:06:17;98226.53;;;16.71;57.36
25947;BME280;13745;51.470;9.894;2023-03-23T03:09:12;98232.09;;;16.65;57.93
25947;BME280;13745;51.470;9.894;2023-03-23T03:12:04;98227.22;;;16.59;58.03
25947;BME280;13745;51.470;9.894;2023-03-23T03:14:58;98229.31;;;16.52;58.40
25947;BME280;13745;51.470;9.894;2023-03-23T03:17:55;98223.53;;;16.47;58.64
25947;BME280;13745;51.470;9.894;2023-03-23T03:20:45;98230.84;;;16.41;59.04
25947;BME280;13745;51.470;9.894;2023-03-23T03:23:34;98215.59;;;16.33;59.12
25947;BME280;13745;51.470;9.894;2023-03-23T03:26:24;98212.38;;;16.28;59.03
25947;BME280;13745;51.470;9.894;2023-03-23T03:29:18;98220.59;;;16.22;59.41
25947;BME280;13745;51.470;9.894;2023-03-23T03:32:06;98227.81;;;16.17;59.62
25947;BME280;13745;51.470;9.894;2023-03-23T03:34:53;98233.22;;;16.14;59.72
25947;BME280;13745;51.470;9.894;2023-03-23T03:37:38;98237.84;;;16.09;60.07
25947;BME280;13745;51.470;9.894;2023-03-23T03:40:25;98250.22;;;16.05;60.24
25947;BME280;13745;51.470;9.894;2023-03-23T03:43:11;98239.19;;;16.00;60.53
25947;BME280;13745;51.470;9.894;2023-03-23T03:45:57;98242.81;;;15.97;60.70
25947;BME280;13745;51.470;9.894;2023-03-23T03:48:41;98233.44;;;15.93;60.57
25947;BME280;13745;51.470;9.894;2023-03-23T03:51:27;98251.91;;;15.90;61.03
25947;BME280;13745;51.470;9.894;2023-03-23T03:54:13;98246.84;;;15.87;61.28
25947;BME280;13745;51.470;9.894;2023-03-23T03:56:59;98246.16;;;15.84;61.58
25947;BME280;13745;51.470;9.894;2023-03-23T04:00:06;98245.56;;;15.79;61.56
25947;BME280;13745;51.470;9.894;2023-03-23T04:02:58;98245.81;;;15.74;62.08
25947;BME280;13745;51.470;9.894;2023-03-23T04:06:04;98251.25;;;15.69;62.16
25947;BME280;13745;51.470;9.894;2023-03-23T04:08:51;98253.28;;;15.64;62.26
25947;BME280;13745;51.470;9.894;2023-03-23T04:11:36;98260.34;;;15.62;62.47
25947;BME280;13745;51.470;9.894;2023-03-23T04:14:41;98258.72;;;15.60;62.47
25947;BME280;13745;51.470;9.894;2023-03-23T04:17:28;98262.47;;;15.54;62.80
25947;BME280;13745;51.470;9.894;2023-03-23T04:20:13;98267.88;;;15.51;62.94
25947;BME280;13745;51.470;9.894;2023-03-23T04:23:05;98269.72;;;15.49;63.13
25947;BME280;13745;51.470;9.894;2023-03-23T04:25:52;98273.41;;;15.45;62.67
25947;BME280;13745;51.470;9.894;2023-03-23T04:28:41;98282.16;;;15.44;63.39
25947;BME280;13745;51.470;9.894;2023-03-23T04:31:45;98279.72;;;15.41;63.45
25947;BME280;13745;51.470;9.894;2023-03-23T04:34:42;98282.47;;;15.38;63.74
25947;BME280;13745;51.470;9.894;2023-03-23T04:37:28;98291.38;;;15.34;64.02
25947;BME280;13745;51.470;9.894;2023-03-23T04:40:19;98287.19;;;15.31;64.07
25947;BME280;13745;51.470;9.894;2023-03-23T04:43:27;98283.00;;;15.27;64.25
25947;BME280;13745;51.470;9.894;2023-03-23T04:46:20;98298.91;;;15.23;64.43
25947;BME280;13745;51.470;9.894;2023-03-23T04:49:08;98276.47;;;15.18;64.92
25947;BME280;13745;51.470;9.894;2023-03-23T04:51:57;98266.25;;;15.14;64.86
25947;BME280;13745;51.470;9.894;2023-03-23T04:54:58;98262.13;;;15.10;65.06
25947;BME280;13745;51.470;9.894;2023-03-23T04:57:45;98273.56;;;15.07;65.17
25947;BME280;13745;51.470;9.894;2023-03-23T05:00:45;98281.53;;;15.04;65.05
25947;BME280;13745;51.470;9.894;2023-03-23T05:03:33;98268.72;;;15.00;65.66
25947;BME280;13745;51.470;9.894;2023-03-23T05:06:18;98241.06;;;14.96;65.68
25947;BME280;13745;51.470;9.894;2023-03-23T05:09:06;98255.22;;;14.92;65.94
25947;BME280;13745;51.470;9.894;2023-03-23T05:11:51;98245.69;;;14.91;66.06
25947;BME280;13745;51.470;9.894;2023-03-23T05:14:40;98248.44;;;14.87;66.17
25947;BME280;13745;51.470;9.894;2023-03-23T05:17:28;98242.53;;;14.84;66.33
25947;BME280;13745;51.470;9.894;2023-03-23T05:20:16;98240.94;;;14.81;66.67
25947;BME280;13745;51.470;9.894;2023-03-23T05:23:06;98239.31;;;14.79;66.44
25947;BME280;13745;51.470;9.894;2023-03-23T05:25:55;98215.97;;;14.76;66.77
25947;BME280;13745;51.470;9.894;2023-03-23T05:28:42;98215.97;;;14.76;66.52
25947;BME280;13745;51.470;9.894;2023-03-23T05:31:34;98217.75;;;14.75;66.77
25947;BME280;13745;51.470;9.894;2023-03-23T05:34:20;98205.69;;;14.73;66.61
25947;BME280;13745;51.470;9.894;2023-03-23T05:37:10;98214.44;;;14.72;67.08
25947;BME280;13745;51.470;9.894;2023-03-23T05:40:14;98213.50;;;14.73;67.07
25947;BME280;13745;51.470;9.894;2023-03-23T05:43:04;98208.38;;;14.71;67.24
25947;BME280;13745;51.470;9.894;2023-03-23T05:46:07;98193.56;;;14.72;67.29
25947;BME280;13745;51.470;9.894;2023-03-23T05:48:54;98199.63;;;14.72;67.06
25947;BME280;13745;51.470;9.894;2023-03-23T05:51:45;98209.22;;;14.72;67.25
25947;BME280;13745;51.470;9.894;2023-03-23T05:54:31;98234.31;;;14.74;67.22
25947;BME280;13745;51.470;9.894;2023-03-23T05:57:19;98230.03;;;14.73;67.45
25947;BME280;13745;51.470;9.894;2023-03-23T06:00:12;98239.47;;;14.76;67.38
25947;BME280;13745;51.470;9.894;2023-03-23T06:03:00;98245.44;;;14.78;67.33
25947;BME280;13745;51.470;9.894;2023-03-23T06:05:52;98247.03;;;14.80;67.23
25947;BME280;13745;51.470;9.894;2023-03-23T06:08:42;98243.47;;;14.83;67.12
25947;BME280;13745;51.470;9.894;2023-03-23T06:11:28;98248.59;;;14.84;67.15
25947;BME280;13745;51.470;9.894;2023-03-23T06:14:32;98239.78;;;14.87;67.11
25947;BME280;13745;51.470;9.894;2023-03-23T06:17:20;98246.66;;;14.88;67.11
25947;BME280;13745;51.470;9.894;2023-03-23T06:20:10;98238.78;;;14.89;66.95
25947;BME280;13745;51.470;9.894;2023-03-23T06:22:58;98218.59;;;14.93;67.15
25947;BME280;13745;51.470;9.894;2023-03-23T06:25:48;98210.59;;;14.96;67.06
25947;BME280;13745;51.470;9.894;2023-03-23T06:28:34;98207.94;;;14.98;67.14
25947;BME280;13745;51.470;9.894;2023-03-23T06:31:19;98206.84;;;15.02;67.00
25947;BME280;13745;51.470;9.894;2023-03-23T06:34:07;98209.38;;;15.03;67.17
25947;BME280;13745;51.470;9.894;2023-03-23T06:37:13;98210.00;;;15.08;67.13
25947;BME280;13745;51.470;9.894;2023-03-23T06:40:19;98211.53;;;15.12;66.81
25947;BME280;13745;51.470;9.894;2023-03-23T06:43:12;98226.22;;;15.15;67.20
25947;BME280;13745;51.470;9.894;2023-03-23T06:46:06;98232.94;;;15.19;66.57
25947;BME280;13745;51.470;9.894;2023-03-23T06:48:55;98251.94;;;15.23;66.96
25947;BME280;13745;51.470;9.894;2023-03-23T06:51:50;98249.25;;;15.24;66.73
25947;BME280;13745;51.470;9.894;2023-03-23T06:54:35;98255.13;;;15.28;66.88
25947;BME280;13745;51.470;9.894;2023-03-23T06:57:22;98248.69;;;15.35;66.87
25947;BME280;13745;51.470;9.894;2023-03-23T07:00:10;98243.06;;;15.42;66.99
25947;BME280;13745;51.470;9.894;2023-03-23T07:02:56;98237.38;;;15.52;66.98
25947;BME280;13745;51.470;9.894;2023-03-23T07:05:41;98247.38;;;15.61;66.72
25947;BME280;13745;51.470;9.894;2023-03-23T07:08:30;98247.81;;;15.69;66.60
25947;BME280;13745;51.470;9.894;2023-03-23T07:11:15;98250.03;;;15.77;66.64
25947;BME280;13745;51.470;9.894;2023-03-23T07:14:03;98254.00;;;15.84;66.63
25947;BME280;13745;51.470;9.894;2023-03-23T07:16:48;98253.59;;;15.91;65.93
25947;BME280;13745;51.470;9.894;2023-03-23T07:19:34;98259.28;;;15.99;66.43
25947;BME280;13745;51.470;9.894;2023-03-23T07:22:20;98246.72;;;16.06;66.30
25947;BME280;13745;51.470;9.894;2023-03-23T07:25:16;98250.84;;;16.10;65.97
25947;BME280;13745;51.470;9.894;2023-03-23T07:28:07;98256.59;;;16.17;65.78
25947;BME280;13745;51.470;9.894;2023-03-23T07:30:53;98254.06;;;16.15;65.64
25947;BME280;13745;51.470;9.894;2023-03-23T07:33:39;98268.72;;;16.18;65.34
25947;BME280;13745;51.470;9.894;2023-03-23T07:36:25;98266.88;;;16.20;65.52
25947;BME280;13745;51.470;9.894;2023-03-23T07:39:10;98274.56;;;16.23;65.19
25947;BME280;13745;51.470;9.894;2023-03-23T07:41:57;98268.41;;;16.24;65.44
25947;BME280;13745;51.470;9.894;2023-03-23T07:44:54;98274.38;;;16.26;65.39
25947;BME280;13745;51.470;9.894;2023-03-23T07:47:40;98282.97;;;16.28;65.15
25947;BME280;13745;51.470;9.894;2023-03-23T07:50:25;98284.66;;;16.29;65.25
25947;BME280;13745;51.470;9.894;2023-03-23T07:53:13;98276.41;;;16.37;65.59
25947;BME280;13745;51.470;9.894;2023-03-23T07:56:02;98294.38;;;16.43;65.31
25947;BME280;13745;51.470;9.894;2023-03-23T07:59:08;98278.94;;;16.54;65.38
25947;BME280;13745;51.470;9.894;2023-03-23T08:01:56;98269.59;;;16.66;65.02
25947;BME280;13745;51.470;9.894;2023-03-23T08:04:52;98271.28;;;16.82;64.79
25947;BME280;13745;51.470;9.894;2023-03-23T08:07:56;98272.25;;;16.96;64.71
25947;BME280;13745;51.470;9.894;2023-03-23T08:11:11;98280.16;;;17.10;64.48
25947;BME280;13745;51.470;9.894;2023-03-23T08:14:19;98267.13;;;17.24;64.49
25947;BME280;13745;51.470;9.894;2023-03-23T08:17:23;98279.63;;;17.49;64.43
25947;BME280;13745;51.470;9.894;2023-03-23T08:20:29;98287.31;;;17.66;64.02
25947;BME280;13745;51.470;9.894;2023-03-23T08:23:18;98289.63;;;17.73;63.76
25947;BME280;13745;51.470;9.894;2023-03-23T08:26:20;98303.66;;;17.72;63.49
25947;BME280;13745;51.470;9.894;2023-03-23T08:29:26;98297.91;;;17.65;63.08
25947;BME280;13745;51.470;9.894;2023-03-23T08:32:35;98305.94;;;17.62;63.17
25947;BME280;13745;51.470;9.894;2023-03-23T08:35:31;98304.44;;;17.58;62.90
25947;BME280;13745;51.470;9.894;2023-03-23T08:38:37;98311.47;;;17.57;62.95
25947;BME280;13745;51.470;9.894;2023-03-23T08:41:37;98310.72;;;17.55;63.00
25947;BME280;13745;51.470;9.894;2023-03-23T08:44:43;98302.84;;;17.55;62.67
25947;BME280;13745;51.470;9.894;2023-03-23T08:47:49;98311.56;;;17.56;62.70
25947;BME280;13745;51.470;9.894;2023-03-23T08:50:59;98300.03;;;17.58;62.45
25947;BME280;13745;51.470;9.894;2023-03-23T08:54:01;98297.16;;;17.63;62.60
25947;BME280;13745;51.470;9.894;2023-03-23T08:57:08;98293.31;;;17.68;62.54
25947;BME280;13745;51.470;9.894;2023-03-23T09:00:13;98291.28;;;17.74;62.50
25947;BME280;13745;51.470;9.894;2023-03-23T09:03:20;98288.38;;;17.78;62.30
25947;BME280;13745;51.470;9.894;2023-03-23T09:06:23;98299.53;;;17.82;62.01
25947;BME280;13745;51.470;9.894;2023-03-23T09:09:08;98281.94;;;17.84;62.08
25947;BME280;13745;51.470;9.894;2023-03-23T09:11:54;98284.28;;;17.88;61.83
25947;BME280;13745;51.470;9.894;2023-03-23T09:14:39;98291.69;;;17.96;61.80
25947;BME280;13745;51.470;9.894;2023-03-23T09:17:26;98289.03;;;18.10;61.71
25947;BME280;13745;51.470;9.894;2023-03-23T09:20:12;98288.00;;;18.27;61.66
25947;BME280;13745;51.470;9.894;2023-03-23T09:22:58;98286.66;;;18.48;61.04
25947;BME280;13745;51.470;9.894;2023-03-23T09:25:44;98279.78;;;18.60;60.82
25947;BME280;13745;51.470;9.894;2023-03-23T09:28:29;98289.28;;;18.63;60.51
25947;BME280;13745;51.470;9.894;2023-03-23T09:31:16;98281.47;;;18.61;60.47
25947;BME280;13745;51.470;9.894;2023-03-23T09:34:05;98289.34;;;18.61;60.43
25947;BME280;13745;51.470;9.894;2023-03-23T09:36:50;98278.00;;;18.61;60.10
25947;BME280;13745;51.470;9.894;2023-03-23T09:39:35;98289.66;;;18.57;60.10
25947;BME280;13745;51.470;9.894;2023-03-23T09:42:36;98294.06;;;18.56;60.21
25947;BME280;13745;51.470;9.894;2023-03-23T09:45:28;98296.69;;;18.56;60.00
25947;BME280;13745;51.470;9.894;2023-03-23T09:48:40;98296.69;;;18.56;60.21
25947;BME280;13745;51.470;9.894;2023-03-23T09:51:37;98296.13;;;18.51;59.96
25947;BME280;13745;51.470;9.894;2023-03-23T09:54:28;98294.53;;;18.48;59.99
25947;BME280;13745;51.470;9.894;2023-03-23T09:57:16;98293.81;;;18.46;59.83
25947;BME280;13745;51.470;9.894;2023-03-23T10:00:10;98308.50;;;18.49;59.92
25947;BME280;13745;51.470;9.894;2023-03-23T10:03:02;98289.28;;;18.48;59.64
25947;BME280;13745;51.470;9.894;2023-03-23T10:05:51;98288.56;;;18.46;59.64
25947;BME280;13745;51.470;9.894;2023-03-23T10:08:43;98288.63;;;18.45;59.53
25947;BME280;13745;51.470;9.894;2023-03-23T10:11:36;98288.63;;;18.45;59.43
25947;BME280;13745;51.470;9.894;2023-03-23T10:14:34;98291.91;;;18.48;58.92
25947;BME280;13745;51.470;9.894;2023-03-23T10:17:25;98292.56;;;18.52;58.74
25947;BME280;13745;51.470;9.894;2023-03-23T10:20:34;98293.97;;;18.58;59.13
25947;BME280;13745;51.470;9.894;2023-03-23T10:23:41;98305.09;;;18.61;58.92
25947;BME280;13745;51.470;9.894;2023-03-23T10:26:34;98305.94;;;18.62;58.83
25947;BME280;13745;51.470;9.894;2023-03-23T10:29:26;98316.34;;;18.63;58.78
25947;BME280;13745;51.470;9.894;2023-03-23T10:32:15;98302.28;;;18.64;58.33
25947;BME280;13745;51.470;9.894;2023-03-23T10:35:05;98317.97;;;18.66;58.26
25947;BME280;13745;51.470;9.894;2023-03-23T10:37:55;98305.59;;;18.68;58.10
25947;BME280;13745;51.470;9.894;2023-03-23T10:40:50;98323.97;;;18.68;57.91
25947;BME280;13745;51.470;9.894;2023-03-23T10:43:36;98319.53;;;18.68;57.96
25947;BME280;13745;51.470;9.894;2023-03-23T10:46:28;98313.56;;;18.66;58.02
25947;BME280;13745;51.470;9.894;2023-03-23T10:49:15;98323.00;;;18.69;58.00
25947;BME280;13745;51.470;9.894;2023-03-23T10:52:09;98328.19;;;18.70;57.91
25947;BME280;13745;51.470;9.894;2023-03-23T10:54:57;98336.81;;;18.72;57.77
25947;BME280;13745;51.470;9.894;2023-03-23T10:57:45;98320.56;;;18.80;57.88
25947;BME280;13745;51.470;9.894;2023-03-23T11:00:32;98312.63;;;18.94;57.76
25947;BME280;13745;51.470;9.894;2023-03-23T11:03:24;98322.22;;;18.95;58.00
25947;BME280;13745;51.470;9.894;2023-03-23T11:06:19;98331.28;;;19.04;57.52
25947;BME280;13745;51.470;9.894;2023-03-23T11:09:10;98316.34;;;19.31;57.38
25947;BME280;13745;51.470;9.894;2023-03-23T11:11:56;98316.13;;;19.61;57.52
25947;BME280;13745;51.470;9.894;2023-03-23T11:14:42;98285.09;;;19.79;56.35
25947;BME280;13745;51.470;9.894;2023-03-23T11:17:28;98305.47;;;19.76;55.89
25947;BME280;13745;51.470;9.894;2023-03-23T11:23:10;98296.22;;;19.57;55.31
25947;BME280;13745;51.470;9.894;2023-03-23T11:25:59;98304.41;;;19.53;55.08
25947;BME280;13745;51.470;9.894;2023-03-23T11:28:46;98309.91;;;19.62;55.13
25947;BME280;13745;51.470;9.894;2023-03-23T11:31:38;98317.59;;;19.91;54.42
25947;BME280;13745;51.470;9.894;2023-03-23T11:34:29;98306.28;;;20.40;54.19
25947;BME280;13745;51.470;9.894;2023-03-23T11:37:25;98313.16;;;20.79;53.62
25947;BME280;13745;51.470;9.894;2023-03-23T11:40:17;98309.75;;;21.14;52.74
25947;BME280;13745;51.470;9.894;2023-03-23T11:43:08;98313.97;;;21.51;52.35
25947;BME280;13745;51.470;9.894;2023-03-23T11:46:02;98303.22;;;22.12;51.68
25947;BME280;13745;51.470;9.894;2023-03-23T11:48:54;98307.13;;;22.62;50.64
25947;BME280;13745;51.470;9.894;2023-03-23T11:51:42;98305.84;;;23.32;50.57
25947;BME280;13745;51.470;9.894;2023-03-23T11:54:33;98311.47;;;23.92;49.21
25947;BME280;13745;51.470;9.894;2023-03-23T11:57:19;98369.09;;;25.01;47.67
25947;BME280;13745;51.470;9.894;2023-03-23T12:00:13;98315.97;;;25.41;46.64
25947;BME280;13745;51.470;9.894;2023-03-23T12:03:02;98304.09;;;25.74;45.33
25947;BME280;13745;51.470;9.894;2023-03-23T12:05:55;98318.75;;;26.62;44.61
25947;BME280;13745;51.470;9.894;2023-03-23T12:08:58;98316.75;;;27.63;43.65
25947;BME280;13745;51.470;9.894;2023-03-23T12:11:52;98313.50;;;28.21;41.73
25947;BME280;13745;51.470;9.894;2023-03-23T12:14:47;98309.63;;;28.75;41.09
25947;BME280;13745;51.470;9.894;2023-03-23T12:17:46;98306.91;;;29.42;40.67
25947;BME280;13745;51.470;9.894;2023-03-23T12:20:44;98320.28;;;29.83;40.56
25947;BME280;13745;51.470;9.894;2023-03-23T12:23:40;98310.75;;;30.05;39.64
25947;BME280;13745;51.470;9.894;2023-03-23T12:26:29;98319.28;;;29.76;39.44
25947;BME280;13745;51.470;9.894;2023-03-23T12:29:39;98313.41;;;29.15;40.45
25947;BME280;13745;51.470;9.894;2023-03-23T12:32:35;98318.44;;;28.68;40.82
25947;BME280;13745;51.470;9.894;2023-03-23T12:35:32;98319.75;;;27.78;40.84
25947;BME280;13745;51.470;9.894;2023-03-23T12:38:44;98319.09;;;26.77;42.20
25947;BME280;13745;51.470;9.894;2023-03-23T12:41:37;98310.19;;;25.84;42.67
25947;BME280;13745;51.470;9.894;2023-03-23T12:44:31;98326.56;;;25.12;43.32
25947;BME280;13745;51.470;9.894;2023-03-23T12:47:31;98308.69;;;24.54;44.01
25947;BME280;13745;51.470;9.894;2023-03-23T12:50:24;98299.25;;;24.00;45.02
25947;BME280;13745;51.470;9.894;2023-03-23T12:53:16;98311.53;;;23.48;45.03
25947;BME280;13745;51.470;9.894;2023-03-23T12:56:14;98302.22;;;23.12;45.78
25947;BME280;13745;51.470;9.894;2023-03-23T12:59:10;98310.91;;;22.92;46.89
25947;BME280;13745;51.470;9.894;2023-03-23T13:01:59;98322.00;;;22.86;47.38
25947;BME280;13745;51.470;9.894;2023-03-23T13:04:50;98317.69;;;22.85;47.13
25947;BME280;13745;51.470;9.894;2023-03-23T13:07:41;98302.16;;;22.80;47.38
25947;BME280;13745;51.470;9.894;2023-03-23T13:10:32;98293.53;;;22.78;47.74
25947;BME280;13745;51.470;9.894;2023-03-23T13:13:22;98294.50;;;22.77;47.91
25947;BME280;13745;51.470;9.894;2023-03-23T13:16:18;98299.19;;;22.62;47.70
25947;BME280;13745;51.470;9.894;2023-03-23T13:19:11;98303.03;;;22.58;48.44
25947;BME280;13745;51.470;9.894;2023-03-23T13:22:02;98306.06;;;22.54;48.04
25947;BME280;13745;51.470;9.894;2023-03-23T13:24:52;98298.38;;;22.51;48.47
25947;BME280;13745;51.470;9.894;2023-03-23T13:27:39;98308.13;;;22.39;48.19
25947;BME280;13745;51.470;9.894;2023-03-23T13:30:28;98305.97;;;22.22;48.29
25947;BME280;13745;51.470;9.894;2023-03-23T13:33:14;98317.44;;;21.98;48.61
25947;BME280;13745;51.470;9.894;2023-03-23T13:36:11;98344.13;;;21.71;48.91
25947;BME280;13745;51.470;9.894;2023-03-23T13:38:58;98313.72;;;21.43;49.58
25947;BME280;13745;51.470;9.894;2023-03-23T13:41:48;98308.94;;;21.24;49.67
25947;BME280;13745;51.470;9.894;2023-03-23T13:44:43;98311.56;;;21.24;49.97
25947;BME280;13745;51.470;9.894;2023-03-23T13:47:37;98311.41;;;21.27;49.93
25947;BME280;13745;51.470;9.894;2023-03-23T13:50:27;98306.00;;;21.29;49.97
25947;BME280;13745;51.470;9.894;2023-03-23T13:53:21;98324.34;;;21.30;50.09
25947;BME280;13745;51.470;9.894;2023-03-23T13:56:15;98304.34;;;21.39;50.16
25947;BME280;13745;51.470;9.894;2023-03-23T13:59:05;98286.66;;;21.52;50.32
25947;BME280;13745;51.470;9.894;2023-03-23T14:01:52;98303.84;;;21.69;49.98
25947;BME280;13745;51.470;9.894;2023-03-23T14:04:40;98290.91;;;21.88;49.68
25947;BME280;13745;51.470;9.894;2023-03-23T14:07:25;98314.16;;;21.83;49.44
25947;BME280;13745;51.470;9.894;2023-03-23T14:10:16;98307.66;;;21.65;49.75
25947;BME280;13745;51.470;9.894;2023-03-23T14:13:04;98310.22;;;21.43;50.17
25947;BME280;13745;51.470;9.894;2023-03-23T14:15:56;98307.81;;;21.16;50.08
25947;BME280;13745;51.470;9.894;2023-03-23T14:18:48;98312.06;;;20.94;50.64
25947;BME280;13745;51.470;9.894;2023-03-23T14:21:38;98316.75;;;20.78;51.06
25947;BME280;13745;51.470;9.894;2023-03-23T14:24:25;98310.56;;;20.66;51.28
25947;BME280;13745;51.470;9.894;2023-03-23T14:27:13;98299.84;;;20.57;51.34
25947;BME280;13745;51.470;9.894;2023-03-23T14:30:00;98291.53;;;20.50;51.78
25947;BME280;13745;51.470;9.894;2023-03-23T14:32:45;98297.31;;;20.42;51.87
25947;BME280;13745;51.470;9.894;2023-03-23T14:35:34;98277.88;;;20.32;51.79
25947;BME280;13745;51.470;9.894;2023-03-23T14:38:23;98299.25;;;20.28;51.96
25947;BME280;13745;51.470;9.894;2023-03-23T14:41:15;98292.94;;;20.30;52.42
25947;BME280;13745;51.470;9.894;2023-03-23T14:44:01;98302.41;;;20.33;52.23
25947;BME280;13745;51.470;9.894;2023-03-23T14:46:49;98300.81;;;20.30;52.36
25947;BME280;13745;51.470;9.894;2023-03-23T14:49:35;98288.81;;;20.26;52.19
25947;BME280;13745;51.470;9.894;2023-03-23T14:52:29;98289.88;;;20.24;52.28
25947;BME280;13745;51.470;9.894;2023-03-23T14:55:20;98274.31;;;20.20;51.93
25947;BME280;13745;51.470;9.894;2023-03-23T14:58:07;98273.47;;;20.20;52.03
25947;BME280;13745;51.470;9.894;2023-03-23T15:00:57;98278.09;;;20.16;52.26
25947;BME280;13745;51.470;9.894;2023-03-23T15:03:47;98274.03;;;20.12;52.45
25947;BME280;13745;51.470;9.894;2023-03-23T15:06:35;98289.03;;;20.10;52.23
25947;BME280;13745;51.470;9.894;2023-03-23T15:09:22;98276.84;;;20.09;52.07
25947;BME280;13745;51.470;9.894;2023-03-23T15:12:20;98284.13;;;20.06;52.41